Time;durP1;ratioP1;P1;durP2;ratioP2;P2;SDS_P1;SDS_P2;PMS_P1;PMS_P2;Temp;Humidity;BMP_temperature;BMP_pressure;BME280_temperature;BME280_humidity;BME280_pressure;Samples;Min_cycle;Max_cycle;Signal;HPM_P1;HPM_P2
2021/03/04 00:01:02;;;;;;;38.78;19.63;;;11.00;94.80;;;;;;5070949;28;20024;-67
2021/03/04 00:03:28;;;;;;;37.38;19.08;;;10.80;95.20;;;;;;5070903;28;20056;-66
2021/03/04 00:05:54;;;;;;;38.35;20.80;;;10.90;95.10;;;;;;5069960;28;20025;-66
2021/03/04 00:08:19;;;;;;;39.88;20.35;;;10.80;95.20;;;;;;5071164;28;20359;-65
2021/03/04 00:10:45;;;;;;;36.15;19.98;;;10.90;95.10;;;;;;5069100;28;20028;-65
2021/03/04 00:13:11;;;;;;;33.40;20.48;;;10.90;95.20;;;;;;5069460;28;20032;-67
2021/03/04 00:15:40;;;;;;;31.35;18.27;;;10.80;95.40;;;;;;5069011;28;20090;-66
2021/03/04 00:18:06;;;;;;;40.38;20.40;;;10.80;95.40;;;;;;5070543;28;20454;-66
2021/03/04 00:20:32;;;;;;;45.50;20.23;;;10.80;95.70;;;;;;5071871;28;20028;-65
2021/03/04 00:22:59;;;;;;;31.63;19.48;;;10.70;95.70;;;;;;5073292;28;20139;-65
2021/03/04 00:25:30;;;;;;;37.92;19.38;;;10.80;95.80;;;;;;5073432;28;20024;-66
2021/03/04 00:27:56;;;;;;;40.92;20.48;;;10.80;95.80;;;;;;5074806;28;20056;-65
2021/03/04 00:30:22;;;;;;;32.78;19.50;;;10.80;95.80;;;;;;5074779;28;20059;-65
2021/03/04 00:32:48;;;;;;;35.53;19.08;;;10.80;95.70;;;;;;5072575;28;20166;-66
2021/03/04 00:35:14;;;;;;;34.85;19.77;;;10.90;95.70;;;;;;5073413;28;20385;-67
2021/03/04 00:37:40;;;;;;;33.25;18.95;;;10.80;95.70;;;;;;5074341;28;20493;-67
2021/03/04 00:40:12;;;;;;;35.22;20.35;;;10.90;95.70;;;;;;5074691;28;20040;-67
2021/03/04 00:42:38;;;;;;;34.17;18.65;;;10.90;95.70;;;;;;5074150;28;20028;-66
2021/03/04 00:45:09;;;;;;;32.33;19.98;;;10.80;95.80;;;;;;5073046;28;20037;-65
2021/03/04 00:47:34;;;;;;;35.60;20.33;;;10.80;95.80;;;;;;5073470;28;20036;-66
2021/03/04 00:50:01;;;;;;;36.75;19.48;;;10.90;95.80;;;;;;5073916;28;20274;-66
2021/03/04 00:52:27;;;;;;;39.50;20.58;;;10.90;95.90;;;;;;5072331;28;20039;-69
2021/03/04 00:54:53;;;;;;;35.72;20.60;;;10.80;96.00;;;;;;5072952;28;20025;-66
2021/03/04 00:57:18;;;;;;;30.98;18.63;;;10.80;96.00;;;;;;5074047;28;20109;-66
2021/03/04 00:59:44;;;;;;;32.30;19.85;;;10.80;96.20;;;;;;5073526;28;20024;-67
2021/03/04 01:02:09;;;;;;;33.05;20.92;;;10.80;96.10;;;;;;5074093;28;20460;-67
2021/03/04 01:04:35;;;;;;;36.40;20.25;;;10.80;96.10;;;;;;5073404;28;20167;-66
2021/03/04 01:07:01;;;;;;;37.55;19.10;;;10.80;96.40;;;;;;5072410;28;20082;-66
2021/03/04 01:09:26;;;;;;;32.75;19.92;;;10.80;96.30;;;;;;5072531;28;20050;-66
2021/03/04 01:11:52;;;;;;;34.28;18.15;;;10.80;96.30;;;;;;5072801;28;20028;-66
2021/03/04 01:14:17;;;;;;;33.75;19.75;;;10.80;96.40;;;;;;5072408;28;20470;-67
2021/03/04 01:16:43;;;;;;;34.28;19.30;;;10.70;96.50;;;;;;5073217;28;20142;-66
2021/03/04 01:19:09;;;;;;;29.08;18.40;;;10.70;96.60;;;;;;5073848;28;20024;-67
2021/03/04 01:21:35;;;;;;;37.83;20.08;;;10.70;96.50;;;;;;5073223;28;20099;-67
2021/03/04 01:24:01;;;;;;;33.78;18.13;;;10.70;96.50;;;;;;5071381;28;20140;-66
2021/03/04 01:26:26;;;;;;;33.72;18.35;;;10.70;96.50;;;;;;5070878;28;20484;-66
2021/03/04 01:28:52;;;;;;;29.88;19.15;;;10.80;96.50;;;;;;5071806;28;20025;-66
2021/03/04 01:31:17;;;;;;;29.27;18.75;;;10.70;96.70;;;;;;5071770;28;20436;-66
2021/03/04 01:33:43;;;;;;;33.58;19.17;;;10.70;96.70;;;;;;5069969;28;20032;-67
2021/03/04 01:36:09;;;;;;;31.77;18.35;;;10.60;96.80;;;;;;5072839;28;20032;-66
2021/03/04 01:38:34;;;;;;;34.13;19.30;;;10.60;97.00;;;;;;5071709;28;20024;-66
2021/03/04 01:41:00;;;;;;;32.55;18.60;;;10.60;96.90;;;;;;5072257;28;20103;-65
2021/03/04 01:43:26;;;;;;;29.08;18.70;;;10.60;97.00;;;;;;5070879;28;20043;-66
2021/03/04 01:45:51;;;;;;;32.85;19.02;;;10.50;97.20;;;;;;5071691;28;20035;-66
2021/03/04 01:48:17;;;;;;;32.67;18.17;;;10.50;97.20;;;;;;5072458;28;20110;-66
2021/03/04 01:50:43;;;;;;;36.05;19.00;;;10.50;97.30;;;;;;5070226;28;20031;-65
2021/03/04 01:53:08;;;;;;;35.05;20.70;;;10.40;97.70;;;;;;5071835;28;20067;-66
2021/03/04 01:55:34;;;;;;;37.10;19.70;;;10.40;99.70;;;;;;5071058;28;20509;-66
2021/03/04 01:58:00;;;;;;;29.20;19.10;;;10.40;99.90;;;;;;5072036;28;20033;-67
2021/03/04 02:00:26;;;;;;;28.90;18.80;;;10.40;99.90;;;;;;5071907;28;20103;-66
2021/03/04 02:02:52;;;;;;;33.28;18.35;;;10.40;99.90;;;;;;5069907;28;20056;-66
2021/03/04 02:05:19;;;;;;;36.13;20.08;;;10.20;99.90;;;;;;5070706;28;20448;-65
2021/03/04 02:08:16;;;;;;;30.08;18.75;;;10.20;99.90;;;;;;5070000;28;20021;-66
2021/03/04 02:11:04;;;;;;;33.95;19.58;;;10.20;98.40;;;;;;5071230;28;20021;-66
2021/03/04 02:13:44;;;;;;;34.28;19.75;;;10.20;98.30;;;;;;5071521;28;20029;-66
2021/03/04 02:16:35;;;;;;;37.50;20.05;;;10.20;98.50;;;;;;5072024;28;20032;-67
2021/03/04 02:19:05;;;;;;;30.20;19.33;;;10.00;98.60;;;;;;5070730;28;20457;-66
2021/03/04 02:21:36;;;;;;;33.47;19.67;;;9.90;98.80;;;;;;5071874;28;20031;-66
2021/03/04 02:24:35;;;;;;;38.78;19.90;;;9.90;98.80;;;;;;5022559;28;615435;-65
2021/03/04 02:27:06;;;;;;;35.17;19.65;;;9.90;99.00;;;;;;5034626;28;20037;-65
2021/03/04 02:29:35;;;;;;;;;;;10.00;98.70;;;;;;5035190;28;20029;-65
2021/03/04 02:32:01;;;;;;;29.23;19.23;;;10.00;98.80;;;;;;5052858;28;19905;-65
2021/03/04 02:34:28;;;;;;;37.42;21.00;;;9.90;99.00;;;;;;5034473;28;20126;-65
2021/03/04 02:36:55;;;;;;;41.97;20.70;;;9.90;99.10;;;;;;5033892;28;20078;-66
2021/03/04 02:39:22;;;;;;;34.65;21.02;;;9.90;99.00;;;;;;5052276;28;20033;-66
2021/03/04 02:41:47;;;;;;;30.30;19.80;;;10.10;98.90;;;;;;5033313;28;20032;-66
2021/03/04 02:44:15;;;;;;;37.60;21.48;;;10.10;98.80;;;;;;5051222;28;20033;-65
2021/03/04 02:46:41;;;;;;;39.90;20.40;;;9.80;99.20;;;;;;5051572;28;20029;-66
2021/03/04 02:49:07;;;;;;;37.80;19.88;;;9.90;99.10;;;;;;5051983;28;20074;-66
2021/03/04 02:51:35;;;;;;;36.20;20.92;;;9.80;99.40;;;;;;5051821;28;20028;-66
2021/03/04 02:54:01;;;;;;;33.30;19.65;;;9.80;99.40;;;;;;5051696;28;20043;-66
2021/03/04 02:56:29;;;;;;;31.08;19.27;;;9.80;99.20;;;;;;5051950;28;20096;-66
2021/03/04 02:59:01;;;;;;;31.38;18.95;;;9.80;99.40;;;;;;5033428;28;20547;-66
2021/03/04 03:01:28;;;;;;;31.50;19.27;;;10.00;99.20;;;;;;5034013;28;20446;-66
2021/03/04 03:03:54;;;;;;;33.10;19.13;;;9.80;99.50;;;;;;5033479;28;20029;-66
2021/03/04 03:06:24;;;;;;;34.28;20.80;;;9.80;99.60;;;;;;5051601;28;20032;-66
2021/03/04 03:08:51;;;;;;;35.85;19.05;;;9.80;99.50;;;;;;5033314;28;20413;-65
2021/03/04 03:11:17;;;;;;;40.38;19.77;;;9.80;99.70;;;;;;5051476;28;20253;-66
2021/03/04 03:13:49;;;;;;;36.58;19.75;;;9.70;99.80;;;;;;5032753;28;20046;-65
2021/03/04 03:16:14;;;;;;;31.88;19.15;;;9.70;99.70;;;;;;5033759;28;20499;-65
2021/03/04 03:18:40;;;;;;;41.10;20.70;;;9.80;99.70;;;;;;5050914;28;20061;-66
2021/03/04 03:21:06;;;;;;;31.85;20.75;;;9.80;99.60;;;;;;5033600;28;20025;-65
2021/03/04 03:23:31;;;;;;;36.38;19.85;;;9.80;99.70;;;;;;5049020;28;20052;-65
2021/03/04 03:25:57;;;;;;;36.50;20.65;;;9.80;99.70;;;;;;5070628;28;20458;-66
2021/03/04 03:28:23;;;;;;;33.50;19.00;;;9.70;99.90;;;;;;5071304;28;20025;-66
2021/03/04 03:30:49;;;;;;;32.85;20.27;;;9.70;99.90;;;;;;5070791;28;20025;-66
2021/03/04 03:33:17;;;;;;;36.28;20.38;;;9.60;99.90;;;;;;5069902;28;20465;-66
2021/03/04 03:35:43;;;;;;;35.60;19.75;;;9.60;99.90;;;;;;5070832;28;20024;-66
2021/03/04 03:38:10;;;;;;;30.27;20.08;;;9.60;99.90;;;;;;5071130;28;20032;-66
2021/03/04 03:40:37;;;;;;;38.85;20.92;;;9.50;99.90;;;;;;5070202;28;20089;-66
2021/03/04 03:43:06;;;;;;;36.00;19.15;;;9.50;99.90;;;;;;5070010;28;20036;-66
2021/03/04 03:45:41;;;;;;;34.80;21.23;;;9.50;99.90;;;;;;5071373;28;20112;-66
2021/03/04 03:48:10;;;;;;;31.80;20.55;;;9.50;99.90;;;;;;5070988;28;20334;-65
2021/03/04 03:50:38;;;;;;;35.08;19.48;;;9.50;99.90;;;;;;5071125;28;20111;-65
2021/03/04 03:53:04;;;;;;;32.58;20.30;;;9.50;99.90;;;;;;5071280;28;20032;-66
2021/03/04 03:55:30;;;;;;;35.30;19.73;;;9.50;99.90;;;;;;5070892;28;20186;-66
2021/03/04 03:57:58;;;;;;;31.65;18.65;;;9.50;99.90;;;;;;5070432;28;20052;-66
2021/03/04 04:00:25;;;;;;;27.38;18.83;;;9.60;99.90;;;;;;5069805;28;20123;-66
2021/03/04 04:02:58;;;;;;;34.80;20.00;;;9.60;99.90;;;;;;5069987;28;20529;-65
2021/03/04 04:05:25;;;;;;;32.33;20.40;;;9.50;99.90;;;;;;5071324;28;20469;-65
2021/03/04 04:07:54;;;;;;;30.75;19.88;;;9.50;99.90;;;;;;5070287;28;20054;-65
2021/03/04 04:10:22;;;;;;;29.27;19.15;;;9.50;99.90;;;;;;5070622;28;20416;-67
2021/03/04 04:12:48;;;;;;;27.77;18.88;;;9.50;99.90;;;;;;5068648;28;20564;-66
2021/03/04 04:15:13;;;;;;;33.25;19.00;;;9.50;99.90;;;;;;5070408;28;20111;-66
2021/03/04 04:17:39;;;;;;;28.70;19.23;;;9.50;99.90;;;;;;5068854;28;20123;-71
2021/03/04 04:20:06;;;;;;;32.58;19.98;;;9.50;99.90;;;;;;5070600;28;20078;-66
2021/03/04 04:22:32;;;;;;;29.80;20.13;;;9.40;99.90;;;;;;5067981;28;20423;-67
2021/03/04 04:24:58;;;;;;;29.25;19.80;;;9.40;99.90;;;;;;5032252;28;20304;-66
2021/03/04 04:27:25;;;;;;;30.75;18.02;;;9.30;99.90;;;;;;5050685;28;20025;-66
2021/03/04 04:29:51;;;;;;;29.90;19.95;;;9.20;99.90;;;;;;5050123;28;20029;-66
2021/03/04 04:32:17;;;;;;;39.45;21.00;;;9.20;99.90;;;;;;5032427;28;20044;-66
2021/03/04 04:34:43;;;;;;;44.55;22.25;;;9.20;99.90;;;;;;5032433;28;20037;-66
2021/03/04 04:37:08;;;;;;;35.55;18.83;;;9.10;99.90;;;;;;5032651;28;20452;-65
2021/03/04 04:39:34;;;;;;;34.17;20.02;;;9.00;99.90;;;;;;5050183;28;20027;-66
2021/03/04 04:42:00;;;;;;;32.92;18.13;;;9.00;99.90;;;;;;5050073;28;20149;-66
2021/03/04 04:44:25;;;;;;;35.05;19.75;;;9.00;99.90;;;;;;5050462;28;20090;-65
2021/03/04 04:46:52;;;;;;;35.63;19.90;;;9.00;99.90;;;;;;5049486;28;20053;-65
2021/03/04 04:49:18;;;;;;;37.25;20.38;;;8.90;99.90;;;;;;5050293;28;20119;-65
2021/03/04 04:51:44;;;;;;;33.95;20.95;;;9.10;99.90;;;;;;5031617;28;20032;-66
2021/03/04 04:54:10;;;;;;;33.33;20.58;;;9.10;99.90;;;;;;5032369;28;20041;-66
2021/03/04 04:56:36;;;;;;;38.67;19.25;;;9.10;99.90;;;;;;5050317;28;20104;-66
2021/03/04 04:59:02;;;;;;;34.38;19.73;;;9.10;99.90;;;;;;5049681;28;20064;-65
2021/03/04 05:01:28;;;;;;;31.67;19.90;;;9.20;99.90;;;;;;5050271;28;20378;-65
2021/03/04 05:03:53;;;;;;;34.78;19.73;;;9.20;99.90;;;;;;5048504;28;20025;-68
2021/03/04 05:06:20;;;;;;;35.42;20.40;;;9.10;99.90;;;;;;5032975;28;20025;-66
2021/03/04 05:08:46;;;;;;;27.25;18.02;;;9.20;99.90;;;;;;5034966;28;20047;-72
2021/03/04 05:11:12;;;;;;;34.35;19.67;;;9.20;99.90;;;;;;5052942;28;20413;-66
2021/03/04 05:13:37;;;;;;;32.08;19.58;;;9.20;99.90;;;;;;5052854;28;20132;-68
2021/03/04 05:16:04;;;;;;;31.55;19.00;;;9.20;99.90;;;;;;5052576;28;20474;-65
2021/03/04 05:18:29;;;;;;;36.97;19.75;;;9.20;99.90;;;;;;5053248;28;20083;-69
2021/03/04 05:20:55;;;;;;;28.63;18.05;;;9.40;99.90;;;;;;5052609;28;20458;-70
2021/03/04 05:23:20;;;;;;;32.53;20.35;;;9.50;99.90;;;;;;5047811;28;20525;-66
2021/03/04 05:25:46;;;;;;;27.85;17.55;;;9.60;99.90;;;;;;5072726;28;20025;-71
2021/03/04 05:28:13;;;;;;;31.27;20.35;;;9.50;99.90;;;;;;5071708;28;20082;-67
2021/03/04 05:30:40;;;;;;;37.13;19.45;;;9.40;99.90;;;;;;5072803;28;20426;-67
2021/03/04 05:33:05;;;;;;;27.35;18.90;;;9.30;99.90;;;;;;5071993;28;20056;-67
2021/03/04 05:35:31;;;;;;;29.75;17.73;;;9.30;99.90;;;;;;5071825;28;20055;-67
2021/03/04 05:37:57;;;;;;;27.67;18.50;;;9.30;99.90;;;;;;5070533;28;20024;-66
2021/03/04 05:40:23;;;;;;;31.13;18.45;;;9.30;99.90;;;;;;5071553;28;20024;-66
2021/03/04 05:42:50;;;;;;;31.70;19.08;;;9.20;99.90;;;;;;5071793;28;20036;-69
2021/03/04 05:45:18;;;;;;;33.15;18.25;;;9.10;99.90;;;;;;5073062;28;20031;-66
2021/03/04 05:47:46;;;;;;;42.17;19.38;;;9.20;99.90;;;;;;5071683;28;20052;-67
2021/03/04 05:50:17;;;;;;;31.30;18.70;;;9.10;99.90;;;;;;5072612;28;20033;-68
2021/03/04 05:53:09;;;;;;;36.05;18.23;;;9.10;99.90;;;;;;5070629;28;20127;-68
2021/03/04 05:55:36;;;;;;;34.35;20.02;;;9.00;99.90;;;;;;5072983;28;20132;-68
2021/03/04 05:58:02;;;;;;;37.78;18.02;;;8.90;99.90;;;;;;5070962;28;20025;-68
2021/03/04 06:00:28;;;;;;;35.45;19.00;;;9.00;99.90;;;;;;5072989;28;20483;-68
2021/03/04 06:02:54;;;;;;;32.88;19.38;;;9.10;99.90;;;;;;5071838;28;20462;-67
2021/03/04 06:05:19;;;;;;;32.33;19.48;;;9.20;99.90;;;;;;5071684;28;20078;-67
2021/03/04 06:07:46;;;;;;;34.88;18.33;;;9.20;99.90;;;;;;5072424;28;20028;-67
2021/03/04 06:10:13;;;;;;;32.80;19.67;;;9.10;99.90;;;;;;5072668;28;20159;-67
2021/03/04 06:12:40;;;;;;;28.67;17.20;;;9.10;99.90;;;;;;5072486;28;20068;-67
2021/03/04 06:15:07;;;;;;;27.90;18.20;;;8.90;99.90;;;;;;5070496;28;20255;-68
2021/03/04 06:17:33;;;;;;;30.05;17.77;;;9.00;99.90;;;;;;5071670;28;20485;-67
2021/03/04 06:20:00;;;;;;;29.73;16.35;;;9.10;99.90;;;;;;5071522;28;20048;-67
2021/03/04 06:22:28;;;;;;;31.65;16.75;;;9.00;99.90;;;;;;5071787;28;20020;-67
2021/03/04 06:24:54;;;;;;;30.13;18.10;;;9.10;99.90;;;;;;5034177;28;20323;-67
2021/03/04 06:27:29;;;;;;;30.98;16.30;;;9.10;99.90;;;;;;5052404;28;20036;-67
2021/03/04 06:29:56;;;;;;;31.80;17.23;;;9.10;99.90;;;;;;5052022;28;20108;-67
2021/03/04 06:32:23;;;;;;;33.05;17.17;;;9.10;99.90;;;;;;5052105;28;20036;-67
2021/03/04 06:35:03;;;;;;;31.52;17.88;;;9.20;99.90;;;;;;5033640;28;20025;-68
2021/03/04 06:37:29;;;;;;;30.00;16.52;;;9.20;99.90;;;;;;5052153;28;20056;-67
2021/03/04 06:39:56;;;;;;;22.77;15.57;;;9.20;99.90;;;;;;5051574;28;20052;-67
2021/03/04 06:42:23;;;;;;;26.42;15.88;;;9.30;99.90;;;;;;5051927;28;20036;-67
2021/03/04 06:44:51;;;;;;;34.58;16.52;;;9.30;99.80;;;;;;5033676;28;20107;-71
2021/03/04 06:47:28;;;;;;;30.88;17.33;;;9.40;99.80;;;;;;5034322;28;20032;-67
2021/03/04 06:49:55;;;;;;;23.88;14.65;;;9.40;99.70;;;;;;5033188;28;20386;-66
2021/03/04 06:52:28;;;;;;;25.60;16.45;;;9.50;99.40;;;;;;5051844;28;20043;-67
2021/03/04 06:55:05;;;;;;;23.30;14.25;;;9.50;99.20;;;;;;5051023;28;20025;-68
2021/03/04 06:57:31;;;;;;;31.05;15.75;;;9.50;99.30;;;;;;5033580;28;20025;-68
2021/03/04 06:59:56;;;;;;;30.50;16.73;;;9.40;99.40;;;;;;5051509;28;20114;-68
2021/03/04 07:02:29;;;;;;;29.60;15.23;;;9.50;99.40;;;;;;5051560;28;20033;-69
2021/03/04 07:04:58;;;;;;;30.13;15.82;;;9.50;99.30;;;;;;5051420;28;20127;-67
2021/03/04 07:07:27;;;;;;;22.67;14.52;;;9.50;99.30;;;;;;5034053;28;20029;-68
2021/03/04 07:09:56;;;;;;;24.15;15.68;;;9.60;99.30;;;;;;5033580;28;20116;-68
2021/03/04 07:12:23;;;;;;;26.77;16.63;;;9.70;99.20;;;;;;5054294;28;20121;-70
2021/03/04 07:14:50;;;;;;;31.15;16.02;;;9.70;99.30;;;;;;5056697;28;20471;-69
2021/03/04 07:17:25;;;;;;;32.42;17.00;;;9.70;99.30;;;;;;5043464;28;20021;-69
2021/03/04 07:19:57;;;;;;;36.90;17.08;;;9.80;99.30;;;;;;5057046;28;20021;-73
2021/03/04 07:22:24;;;;;;;;;;;9.50;99.70;;;;;;5058607;28;20040;-66
2021/03/04 07:24:50;;;;;;;40.10;19.75;;;9.20;99.90;;;;;;5039325;28;19909;-69
2021/03/04 07:27:16;;;;;;;28.63;17.65;;;9.30;99.90;;;;;;5036282;28;20079;-69
2021/03/04 07:29:46;;;;;;;33.28;17.45;;;9.40;99.90;;;;;;5062135;28;20039;-70
2021/03/04 07:32:13;;;;;;;27.90;17.90;;;9.60;99.90;;;;;;5050733;28;20044;-68
2021/03/04 07:34:44;;;;;;;39.47;17.30;;;9.60;99.90;;;;;;5069299;28;20074;-68
2021/03/04 07:37:14;;;;;;;33.30;17.98;;;9.20;99.90;;;;;;5080458;28;20024;-68
2021/03/04 07:39:40;;;;;;;33.35;18.20;;;9.10;99.90;;;;;;5063417;28;20024;-69
2021/03/04 07:42:19;;;;;;;28.00;16.85;;;9.00;99.90;;;;;;5053645;28;20052;-71
2021/03/04 07:44:45;;;;;;;35.45;17.02;;;8.90;99.90;;;;;;5050548;28;20029;-69
2021/03/04 07:47:12;;;;;;;36.88;18.05;;;9.00;99.90;;;;;;5050011;28;20043;-68
2021/03/04 07:49:39;;;;;;;34.05;18.10;;;8.90;99.90;;;;;;5032773;28;20182;-69
2021/03/04 07:52:11;;;;;;;28.25;18.77;;;9.10;99.90;;;;;;5051792;28;20353;-68
2021/03/04 07:54:41;;;;;;;27.23;16.95;;;9.30;99.90;;;;;;5074954;28;20040;-69
2021/03/04 07:57:14;;;;;;;27.92;16.58;;;9.50;99.90;;;;;;5049751;28;20033;-68
2021/03/04 08:00:02;;;;;;;34.10;17.00;;;9.60;99.90;;;;;;5056724;28;20039;-68
2021/03/04 08:02:29;;;;;;;30.83;14.90;;;10.00;99.70;;;;;;5064829;28;20245;-68
2021/03/04 08:05:34;;;;;;;25.63;14.80;;;10.10;98.90;;;;;;5069606;28;20461;-68
2021/03/04 08:08:21;;;;;;;23.55;13.90;;;10.20;98.40;;;;;;5037059;28;20036;-69
2021/03/04 08:10:53;;;;;;;23.02;13.70;;;10.30;97.70;;;;;;5052254;28;20059;-68
2021/03/04 08:13:28;;;;;;;;;;;10.70;97.20;;;;;;5052867;28;20071;-72
2021/03/04 08:15:54;;;;;;;26.13;14.85;;;10.50;96.90;;;;;;5084866;28;19908;-73
2021/03/04 08:18:23;;;;;;;26.90;14.57;;;10.80;96.20;;;;;;5090009;28;20023;-69
2021/03/04 08:20:50;;;;;;;26.60;15.23;;;11.20;95.90;;;;;;5061753;28;20025;-72
2021/03/04 08:23:18;;;;;;;35.05;15.85;;;11.30;95.20;;;;;;5068811;28;20144;-69
2021/03/04 08:25:44;;;;;;;26.38;14.07;;;11.40;95.20;;;;;;5052085;28;20021;-68
2021/03/04 08:28:21;;;;;;;26.65;14.70;;;11.60;94.90;;;;;;5052014;28;20075;-69
2021/03/04 08:30:46;;;;;;;24.42;15.10;;;11.80;94.20;;;;;;5052494;28;20028;-68
2021/03/04 08:33:13;;;;;;;21.02;13.32;;;11.90;93.80;;;;;;5069623;28;20025;-69
2021/03/04 08:35:46;;;;;;;25.08;15.30;;;11.50;94.50;;;;;;5070226;28;20296;-69
2021/03/04 08:38:21;;;;;;;22.25;14.57;;;11.60;94.40;;;;;;5070067;28;20017;-68
2021/03/04 08:40:53;;;;;;;31.15;17.23;;;11.30;94.70;;;;;;5052242;28;20028;-68
2021/03/04 08:43:29;;;;;;;25.45;14.73;;;11.50;94.40;;;;;;5055636;28;20028;-68
2021/03/04 08:45:57;;;;;;;21.48;14.38;;;11.40;94.30;;;;;;5043402;28;20350;-75
2021/03/04 08:48:23;;;;;;;26.15;16.27;;;11.70;94.20;;;;;;5070298;28;20020;-69
2021/03/04 08:50:51;;;;;;;23.27;15.02;;;11.90;93.70;;;;;;5075655;28;20028;-69
2021/03/04 08:53:18;;;;;;;30.08;14.65;;;12.00;93.70;;;;;;5075103;28;20040;-70
2021/03/04 08:56:10;;;;;;;24.10;13.93;;;12.10;93.50;;;;;;5076207;28;20035;-70
2021/03/04 08:58:42;;;;;;;24.92;15.18;;;12.40;93.00;;;;;;5089551;28;20442;-69
2021/03/04 09:01:08;;;;;;;28.90;14.80;;;12.20;93.20;;;;;;5075183;28;20031;-69
2021/03/04 09:03:36;;;;;;;30.83;14.68;;;12.60;93.30;;;;;;5072880;28;20142;-70
2021/03/04 09:06:17;;;;;;;32.70;15.43;;;12.90;92.60;;;;;;5073234;28;20038;-70
2021/03/04 09:08:48;;;;;;;27.85;14.90;;;12.80;92.20;;;;;;5074636;28;20032;-68
2021/03/04 09:11:29;;;;;;;26.20;15.98;;;12.80;92.00;;;;;;5055224;28;20029;-69
2021/03/04 09:14:09;;;;;;;24.55;15.10;;;12.80;91.80;;;;;;5073810;28;20527;-70
2021/03/04 09:16:50;;;;;;;29.30;16.02;;;12.50;92.00;;;;;;5071191;28;20485;-70
2021/03/04 09:19:38;;;;;;;27.75;13.82;;;12.40;92.20;;;;;;5055311;28;20646;-69
2021/03/04 09:22:09;;;;;;;30.58;15.93;;;13.00;91.60;;;;;;5073462;28;20123;-71
2021/03/04 09:24:37;;;;;;;22.95;15.32;;;13.20;90.90;;;;;;5077824;28;20492;-71
2021/03/04 09:27:13;;;;;;;23.30;14.43;;;13.60;90.60;;;;;;5082027;28;20107;-70
2021/03/04 09:29:40;;;;;;;29.73;14.32;;;13.90;90.10;;;;;;5083669;28;20020;-69
2021/03/04 09:32:06;;;;;;;30.83;15.63;;;14.00;89.30;;;;;;5081366;28;20047;-70
2021/03/04 09:34:34;;;;;;;23.83;14.05;;;14.10;89.10;;;;;;5081408;28;20075;-66
2021/03/04 09:37:12;;;;;;;29.17;16.05;;;14.20;87.70;;;;;;5080401;28;20023;-71
2021/03/04 09:39:45;;;;;;;24.33;14.32;;;14.10;88.40;;;;;;5093149;28;20084;-67
2021/03/04 09:42:17;;;;;;;28.45;14.82;;;14.40;87.20;;;;;;5090992;28;20024;-65
2021/03/04 09:44:54;;;;;;;26.60;15.52;;;13.90;88.10;;;;;;5091900;28;20040;-66
2021/03/04 09:47:25;;;;;;;29.95;16.40;;;13.80;88.60;;;;;;5072326;28;20032;-65
2021/03/04 09:49:52;;;;;;;24.85;16.98;;;13.60;89.20;;;;;;5090514;28;20393;-65
2021/03/04 09:52:31;;;;;;;29.30;15.05;;;13.70;88.80;;;;;;5090699;28;20031;-64
2021/03/04 09:55:15;;;;;;;26.77;14.77;;;13.90;89.90;;;;;;5090472;28;20024;-68
2021/03/04 09:57:42;;;;;;;26.80;14.55;;;14.00;89.60;;;;;;5091978;28;20034;-65
2021/03/04 10:00:23;;;;;;;26.30;15.43;;;13.90;89.40;;;;;;5090534;28;20177;-64
2021/03/04 10:02:52;;;;;;;29.08;17.17;;;13.90;89.30;;;;;;5091617;28;20484;-64
2021/03/04 10:05:23;;;;;;;37.08;16.20;;;13.70;88.10;;;;;;5109910;28;20388;-65
2021/03/04 10:07:51;;;;;;;37.42;15.57;;;13.60;88.90;;;;;;5111185;28;20020;-66
2021/03/04 10:10:19;;;;;;;26.58;15.25;;;13.50;89.60;;;;;;5100527;28;20054;-64
2021/03/04 10:12:58;;;;;;;21.95;15.43;;;13.40;89.50;;;;;;5090657;28;20043;-64
2021/03/04 10:15:30;;;;;;;25.13;15.93;;;13.30;89.40;;;;;;5083973;28;20036;-64
2021/03/04 10:17:56;;;;;;;;;;;13.40;90.00;;;;;;5072709;28;20430;-68
2021/03/04 10:20:23;;;;;;;32.35;16.92;;;13.40;90.20;;;;;;5069554;28;19999;-68
2021/03/04 10:22:49;;;;;;;24.65;14.98;;;13.60;89.50;;;;;;5069988;28;20523;-67
2021/03/04 10:25:16;;;;;;;30.95;16.85;;;13.80;88.90;;;;;;5071419;28;20036;-67
2021/03/04 10:27:42;;;;;;;25.67;16.02;;;13.90;87.70;;;;;;5071821;28;20040;-67
2021/03/04 10:30:10;;;;;;;41.70;17.02;;;14.00;87.40;;;;;;5087700;28;20039;-68
2021/03/04 10:32:36;;;;;;;25.00;15.98;;;14.30;86.60;;;;;;5091673;28;20035;-67
2021/03/04 10:35:05;;;;;;;24.02;15.25;;;14.30;86.20;;;;;;5091477;28;20107;-71
2021/03/04 10:37:30;;;;;;;32.42;17.65;;;14.40;85.80;;;;;;5090145;28;20440;-68
2021/03/04 10:39:56;;;;;;;23.52;16.33;;;14.30;85.50;;;;;;5090197;28;20058;-67
2021/03/04 10:42:23;;;;;;;29.27;18.73;;;14.30;85.90;;;;;;5081385;28;20139;-67
2021/03/04 10:44:48;;;;;;;30.42;16.10;;;14.30;85.50;;;;;;5103087;28;20088;-69
2021/03/04 10:47:14;;;;;;;31.17;17.23;;;14.10;86.40;;;;;;5085420;28;20465;-68
2021/03/04 10:49:40;;;;;;;30.67;16.52;;;14.00;87.30;;;;;;5090292;28;20349;-68
2021/03/04 10:52:05;;;;;;;28.65;17.10;;;14.50;86.60;;;;;;5090972;28;20031;-68
2021/03/04 10:54:31;;;;;;;30.40;17.30;;;14.70;84.90;;;;;;5092101;28;20470;-68
2021/03/04 10:56:57;;;;;;;29.50;16.92;;;15.10;83.90;;;;;;5080344;28;20028;-67
2021/03/04 10:59:24;;;;;;;36.38;17.05;;;15.40;82.90;;;;;;5068591;28;20020;-68
2021/03/04 11:01:50;;;;;;;31.05;17.17;;;15.60;83.10;;;;;;5072667;28;20465;-70
2021/03/04 11:04:16;;;;;;;32.88;16.80;;;15.60;81.70;;;;;;5088583;28;20081;-69
2021/03/04 11:06:41;;;;;;;31.88;16.60;;;15.60;82.00;;;;;;5089977;28;20472;-68
2021/03/04 11:09:07;;;;;;;28.70;16.77;;;15.70;81.50;;;;;;5090232;28;20401;-69
2021/03/04 11:11:33;;;;;;;29.95;17.40;;;16.00;81.40;;;;;;5092514;28;20546;-68
2021/03/04 11:14:00;;;;;;;23.42;17.25;;;16.10;80.20;;;;;;5109844;28;20032;-69
2021/03/04 11:16:25;;;;;;;28.42;16.27;;;16.60;80.00;;;;;;5086217;28;20174;-68
2021/03/04 11:18:51;;;;;;;30.40;15.50;;;17.30;77.60;;;;;;5090605;28;20111;-68
2021/03/04 11:21:18;;;;;;;23.58;16.23;;;17.70;76.70;;;;;;5088269;28;20109;-69
2021/03/04 11:23:43;;;;;;;22.80;14.85;;;18.10;75.30;;;;;;5089231;28;20101;-71
2021/03/04 11:26:09;;;;;;;30.42;15.25;;;18.60;77.50;;;;;;5088939;28;20040;-70
2021/03/04 11:28:35;;;;;;;29.50;14.55;;;19.10;76.50;;;;;;5109781;28;20047;-70
2021/03/04 11:31:01;;;;;;;28.60;15.60;;;19.30;76.80;;;;;;5109187;28;20184;-73
2021/03/04 11:33:30;;;;;;;27.23;18.10;;;19.20;73.60;;;;;;5081101;28;20039;-71
2021/03/04 11:35:56;;;;;;;25.13;16.75;;;19.00;71.50;;;;;;5084387;28;20035;-71
2021/03/04 11:38:22;;;;;;;30.10;18.58;;;19.40;72.00;;;;;;5071186;28;20028;-70
2021/03/04 11:40:48;;;;;;;29.15;17.52;;;19.50;68.50;;;;;;5069445;28;20373;-70
2021/03/04 11:43:14;;;;;;;34.30;18.50;;;19.40;67.80;;;;;;5069070;28;20071;-70
2021/03/04 11:45:39;;;;;;;32.40;19.10;;;19.90;67.00;;;;;;5081235;28;20115;-71
2021/03/04 11:48:06;;;;;;;28.27;18.88;;;20.10;80.90;;;;;;5088025;28;20035;-73
2021/03/04 11:50:31;;;;;;;28.55;18.70;;;19.70;80.70;;;;;;5089120;28;20031;-71
2021/03/04 11:52:57;;;;;;;35.85;19.27;;;19.50;81.00;;;;;;5090277;28;20032;-70
2021/03/04 11:55:23;;;;;;;34.42;19.30;;;19.90;80.80;;;;;;5088057;28;20111;-70
2021/03/04 11:57:48;;;;;;;33.38;19.35;;;20.10;63.70;;;;;;5088872;28;20024;-71
2021/03/04 12:00:15;;;;;;;30.63;19.98;;;19.60;63.00;;;;;;5088132;28;20020;-69
2021/03/04 12:02:40;;;;;;;32.10;20.65;;;19.00;64.10;;;;;;5081932;28;20060;-70
2021/03/04 12:05:06;;;;;;;30.85;18.42;;;18.70;65.00;;;;;;5068680;28;20485;-69
2021/03/04 12:07:33;;;;;;;33.30;20.08;;;18.50;65.60;;;;;;5070961;28;20024;-71
2021/03/04 12:10:00;;;;;;;39.67;22.50;;;18.40;66.50;;;;;;5070704;28;20028;-71
2021/03/04 12:12:26;;;;;;;37.55;20.55;;;18.00;66.70;;;;;;5068284;28;20167;-70
2021/03/04 12:14:51;;;;;;;35.78;20.48;;;17.50;68.30;;;;;;5070670;28;20487;-68
2021/03/04 12:17:17;;;;;;;39.85;20.80;;;17.60;69.50;;;;;;5108349;28;20036;-69
2021/03/04 12:19:43;;;;;;;40.35;20.77;;;17.90;69.20;;;;;;5113837;28;20084;-69
2021/03/04 12:22:09;;;;;;;35.55;21.33;;;18.10;68.70;;;;;;5115202;28;20035;-70
2021/03/04 12:24:37;;;;;;;30.15;19.48;;;18.20;68.50;;;;;;5098411;28;20044;-71
2021/03/04 12:27:04;;;;;;;35.42;19.02;;;18.50;68.10;;;;;;5075682;28;20024;-73
2021/03/04 12:29:30;;;;;;;30.33;19.17;;;18.50;67.90;;;;;;5066132;28;20021;-69
2021/03/04 12:31:56;;;;;;;37.15;20.08;;;18.50;67.50;;;;;;5036030;28;20025;-69
2021/03/04 12:34:21;;;;;;;37.20;19.83;;;18.20;68.20;;;;;;5035649;28;20032;-69
2021/03/04 12:36:47;;;;;;;30.88;19.25;;;18.00;68.60;;;;;;5036589;28;20033;-70
2021/03/04 12:39:14;;;;;;;29.02;20.05;;;17.90;69.00;;;;;;5041801;28;20111;-70